sensor_id;sensor_type;location;lat;lon;timestamp;temperature;humidity
7296;DHT22;40758;54.038;11.684;2022-07-30T00:02:00;15.10;99.90
7296;DHT22;40758;54.038;11.684;2022-07-30T00:04:29;15.10;99.90
7296;DHT22;40758;54.038;11.684;2022-07-30T00:06:59;15.10;99.90
7296;DHT22;40758;54.038;11.684;2022-07-30T00:09:31;15.00;99.90
7296;DHT22;40758;54.038;11.684;2022-07-30T00:12:04;15.00;99.90
7296;DHT22;40758;54.038;11.684;2022-07-30T00:14:34;15.00;99.90
7296;DHT22;40758;54.038;11.684;2022-07-30T00:17:04;14.90;99.90
7296;DHT22;40758;54.038;11.684;2022-07-30T00:19:33;14.90;99.90
7296;DHT22;40758;54.038;11.684;2022-07-30T00:22:02;14.90;99.90
7296;DHT22;40758;54.038;11.684;2022-07-30T00:24:31;14.80;99.90
7296;DHT22;40758;54.038;11.684;2022-07-30T00:27:02;14.80;99.90
7296;DHT22;40758;54.038;11.684;2022-07-30T00:29:31;14.80;99.90
7296;DHT22;40758;54.038;11.684;2022-07-30T00:32:00;14.80;99.90
7296;DHT22;40758;54.038;11.684;2022-07-30T00:34:30;14.70;99.90
7296;DHT22;40758;54.038;11.684;2022-07-30T00:36:59;14.80;99.90
7296;DHT22;40758;54.038;11.684;2022-07-30T00:39:28;14.70;99.90
7296;DHT22;40758;54.038;11.684;2022-07-30T00:41:59;14.70;99.90
7296;DHT22;40758;54.038;11.684;2022-07-30T00:44:30;14.70;99.90
7296;DHT22;40758;54.038;11.684;2022-07-30T00:47:01;14.70;99.90
7296;DHT22;40758;54.038;11.684;2022-07-30T00:49:30;14.70;99.90
7296;DHT22;40758;54.038;11.684;2022-07-30T00:51:59;14.60;99.90
7296;DHT22;40758;54.038;11.684;2022-07-30T00:54:28;14.60;99.90
7296;DHT22;40758;54.038;11.684;2022-07-30T00:56:57;14.40;99.90
7296;DHT22;40758;54.038;11.684;2022-07-30T00:59:26;14.30;99.90
7296;DHT22;40758;54.038;11.684;2022-07-30T01:02:00;14.10;99.90
7296;DHT22;40758;54.038;11.684;2022-07-30T01:04:29;14.10;99.90
7296;DHT22;40758;54.038;11.684;2022-07-30T01:06:58;14.00;99.90
7296;DHT22;40758;54.038;11.684;2022-07-30T01:09:30;13.80;99.90
7296;DHT22;40758;54.038;11.684;2022-07-30T01:11:59;13.90;99.90
7296;DHT22;40758;54.038;11.684;2022-07-30T01:14:29;13.90;99.90
7296;DHT22;40758;54.038;11.684;2022-07-30T01:17:00;13.80;99.90
7296;DHT22;40758;54.038;11.684;2022-07-30T01:19:33;13.90;99.90
7296;DHT22;40758;54.038;11.684;2022-07-30T01:22:28;13.90;99.90
7296;DHT22;40758;54.038;11.684;2022-07-30T01:25:08;14.00;99.90
7296;DHT22;40758;54.038;11.684;2022-07-30T01:27:49;14.00;99.90
7296;DHT22;40758;54.038;11.684;2022-07-30T01:30:24;13.80;99.90
7296;DHT22;40758;54.038;11.684;2022-07-30T01:32:59;13.70;99.90
7296;DHT22;40758;54.038;11.684;2022-07-30T01:35:32;13.60;99.90
7296;DHT22;40758;54.038;11.684;2022-07-30T01:38:04;13.50;99.90
7296;DHT22;40758;54.038;11.684;2022-07-30T01:40:37;13.40;99.90
7296;DHT22;40758;54.038;11.684;2022-07-30T01:43:10;13.40;99.90
7296;DHT22;40758;54.038;11.684;2022-07-30T01:45:41;13.40;99.90
7296;DHT22;40758;54.038;11.684;2022-07-30T01:48:14;13.30;99.90
7296;DHT22;40758;54.038;11.684;2022-07-30T01:50:46;13.30;99.90
7296;DHT22;40758;54.038;11.684;2022-07-30T01:53:23;13.30;99.90
7296;DHT22;40758;54.038;11.684;2022-07-30T01:55:55;13.20;99.90
7296;DHT22;40758;54.038;11.684;2022-07-30T01:58:34;13.20;99.90
7296;DHT22;40758;54.038;11.684;2022-07-30T02:01:08;13.20;99.90
7296;DHT22;40758;54.038;11.684;2022-07-30T02:03:37;13.20;99.90
7296;DHT22;40758;54.038;11.684;2022-07-30T02:06:10;13.20;99.90
7296;DHT22;40758;54.038;11.684;2022-07-30T02:08:53;13.20;99.90
7296;DHT22;40758;54.038;11.684;2022-07-30T02:11:23;13.10;99.90
7296;DHT22;40758;54.038;11.684;2022-07-30T02:14:18;13.20;99.90
7296;DHT22;40758;54.038;11.684;2022-07-30T02:16:53;13.40;99.90
7296;DHT22;40758;54.038;11.684;2022-07-30T02:19:35;13.40;99.90
7296;DHT22;40758;54.038;11.684;2022-07-30T02:22:11;13.40;99.90
7296;DHT22;40758;54.038;11.684;2022-07-30T02:24:45;13.50;99.90
7296;DHT22;40758;54.038;11.684;2022-07-30T02:27:21;13.50;99.90
7296;DHT22;40758;54.038;11.684;2022-07-30T02:29:57;13.50;99.90
7296;DHT22;40758;54.038;11.684;2022-07-30T02:32:32;13.60;99.90
7296;DHT22;40758;54.038;11.684;2022-07-30T02:35:08;13.50;99.90
7296;DHT22;40758;54.038;11.684;2022-07-30T02:37:42;13.50;99.90
7296;DHT22;40758;54.038;11.684;2022-07-30T02:40:18;13.50;99.90
7296;DHT22;40758;54.038;11.684;2022-07-30T02:42:51;13.50;99.90
7296;DHT22;40758;54.038;11.684;2022-07-30T02:45:24;13.50;99.90
7296;DHT22;40758;54.038;11.684;2022-07-30T02:47:57;13.40;99.90
7296;DHT22;40758;54.038;11.684;2022-07-30T02:50:31;13.40;99.90
7296;DHT22;40758;54.038;11.684;2022-07-30T02:53:07;13.40;99.90
7296;DHT22;40758;54.038;11.684;2022-07-30T02:55:40;13.30;99.90
7296;DHT22;40758;54.038;11.684;2022-07-30T02:58:18;13.30;99.90
7296;DHT22;40758;54.038;11.684;2022-07-30T03:00:53;13.30;99.90
7296;DHT22;40758;54.038;11.684;2022-07-30T03:03:23;13.30;99.90
7296;DHT22;40758;54.038;11.684;2022-07-30T03:05:56;13.30;99.90
7296;DHT22;40758;54.038;11.684;2022-07-30T03:08:27;13.30;99.90
7296;DHT22;40758;54.038;11.684;2022-07-30T03:10:59;13.30;99.90
7296;DHT22;40758;54.038;11.684;2022-07-30T03:13:31;13.20;99.90
7296;DHT22;40758;54.038;11.684;2022-07-30T03:16:04;13.30;99.90
7296;DHT22;40758;54.038;11.684;2022-07-30T03:18:37;13.30;99.90
7296;DHT22;40758;54.038;11.684;2022-07-30T03:21:10;13.40;99.90
7296;DHT22;40758;54.038;11.684;2022-07-30T03:23:46;13.40;99.90
7296;DHT22;40758;54.038;11.684;2022-07-30T03:26:19;13.50;99.90
7296;DHT22;40758;54.038;11.684;2022-07-30T03:28:54;13.60;99.90
7296;DHT22;40758;54.038;11.684;2022-07-30T03:31:27;13.50;99.90
7296;DHT22;40758;54.038;11.684;2022-07-30T03:34:02;13.40;99.90
7296;DHT22;40758;54.038;11.684;2022-07-30T03:36:34;13.40;99.90
7296;DHT22;40758;54.038;11.684;2022-07-30T03:39:04;13.40;99.90
7296;DHT22;40758;54.038;11.684;2022-07-30T03:41:36;13.50;99.90
7296;DHT22;40758;54.038;11.684;2022-07-30T03:44:07;13.50;99.90
7296;DHT22;40758;54.038;11.684;2022-07-30T03:46:39;13.60;99.90
7296;DHT22;40758;54.038;11.684;2022-07-30T03:49:10;13.70;99.90
7296;DHT22;40758;54.038;11.684;2022-07-30T03:51:40;13.80;99.90
7296;DHT22;40758;54.038;11.684;2022-07-30T03:54:10;13.80;99.90
7296;DHT22;40758;54.038;11.684;2022-07-30T03:56:40;13.90;99.90
7296;DHT22;40758;54.038;11.684;2022-07-30T03:59:10;14.00;99.90
7296;DHT22;40758;54.038;11.684;2022-07-30T04:01:43;14.10;99.90
7296;DHT22;40758;54.038;11.684;2022-07-30T04:04:12;14.20;99.90
7296;DHT22;40758;54.038;11.684;2022-07-30T04:06:41;14.20;99.90
7296;DHT22;40758;54.038;11.684;2022-07-30T04:09:13;14.30;99.90
7296;DHT22;40758;54.038;11.684;2022-07-30T04:11:42;14.40;99.90
7296;DHT22;40758;54.038;11.684;2022-07-30T04:14:11;14.50;99.90
7296;DHT22;40758;54.038;11.684;2022-07-30T04:16:46;14.60;99.90
7296;DHT22;40758;54.038;11.684;2022-07-30T04:19:21;14.70;99.90
7296;DHT22;40758;54.038;11.684;2022-07-30T04:21:54;14.90;99.90
7296;DHT22;40758;54.038;11.684;2022-07-30T04:24:26;15.00;99.90
7296;DHT22;40758;54.038;11.684;2022-07-30T04:27:01;15.10;99.90
7296;DHT22;40758;54.038;11.684;2022-07-30T04:29:31;15.10;99.90
7296;DHT22;40758;54.038;11.684;2022-07-30T04:32:02;15.20;99.90
7296;DHT22;40758;54.038;11.684;2022-07-30T04:34:33;15.20;99.90
7296;DHT22;40758;54.038;11.684;2022-07-30T04:37:02;15.30;99.90
7296;DHT22;40758;54.038;11.684;2022-07-30T04:39:32;15.30;99.90
7296;DHT22;40758;54.038;11.684;2022-07-30T04:42:01;15.40;99.90
7296;DHT22;40758;54.038;11.684;2022-07-30T04:44:31;15.50;99.90
7296;DHT22;40758;54.038;11.684;2022-07-30T04:47:02;15.60;99.90
7296;DHT22;40758;54.038;11.684;2022-07-30T04:49:32;15.80;99.90
7296;DHT22;40758;54.038;11.684;2022-07-30T04:52:02;15.80;99.90
7296;DHT22;40758;54.038;11.684;2022-07-30T04:54:39;15.90;99.90
7296;DHT22;40758;54.038;11.684;2022-07-30T04:57:12;16.00;99.90
7296;DHT22;40758;54.038;11.684;2022-07-30T04:59:44;16.10;99.90
7296;DHT22;40758;54.038;11.684;2022-07-30T05:02:19;16.10;99.90
7296;DHT22;40758;54.038;11.684;2022-07-30T05:04:50;16.10;99.90
7296;DHT22;40758;54.038;11.684;2022-07-30T05:07:23;16.20;99.90
7296;DHT22;40758;54.038;11.684;2022-07-30T05:09:54;16.20;99.90
7296;DHT22;40758;54.038;11.684;2022-07-30T05:12:31;16.20;99.90
7296;DHT22;40758;54.038;11.684;2022-07-30T05:15:00;16.30;99.90
7296;DHT22;40758;54.038;11.684;2022-07-30T05:17:31;16.30;99.90
7296;DHT22;40758;54.038;11.684;2022-07-30T05:20:01;16.40;99.90
7296;DHT22;40758;54.038;11.684;2022-07-30T05:22:34;16.40;99.90
7296;DHT22;40758;54.038;11.684;2022-07-30T05:25:08;16.60;99.90
7296;DHT22;40758;54.038;11.684;2022-07-30T05:27:42;16.70;99.90
7296;DHT22;40758;54.038;11.684;2022-07-30T05:30:11;16.80;99.90
7296;DHT22;40758;54.038;11.684;2022-07-30T05:32:42;16.90;99.90
7296;DHT22;40758;54.038;11.684;2022-07-30T05:35:12;17.00;99.90
7296;DHT22;40758;54.038;11.684;2022-07-30T05:37:42;17.00;99.90
7296;DHT22;40758;54.038;11.684;2022-07-30T05:40:12;17.20;99.90
7296;DHT22;40758;54.038;11.684;2022-07-30T05:42:41;17.50;99.90
7296;DHT22;40758;54.038;11.684;2022-07-30T05:45:10;18.40;99.90
7296;DHT22;40758;54.038;11.684;2022-07-30T05:47:39;19.70;99.90
7296;DHT22;40758;54.038;11.684;2022-07-30T05:50:11;21.10;99.90
7296;DHT22;40758;54.038;11.684;2022-07-30T05:52:40;21.40;99.90
7296;DHT22;40758;54.038;11.684;2022-07-30T05:55:09;21.10;99.90
7296;DHT22;40758;54.038;11.684;2022-07-30T05:57:38;20.50;99.90
7296;DHT22;40758;54.038;11.684;2022-07-30T06:00:10;20.00;99.90
7296;DHT22;40758;54.038;11.684;2022-07-30T06:02:42;19.70;99.90
7296;DHT22;40758;54.038;11.684;2022-07-30T06:05:11;19.70;99.90
7296;DHT22;40758;54.038;11.684;2022-07-30T06:07:40;20.50;99.90
7296;DHT22;40758;54.038;11.684;2022-07-30T06:10:09;21.20;99.90
7296;DHT22;40758;54.038;11.684;2022-07-30T06:12:38;21.40;99.90
7296;DHT22;40758;54.038;11.684;2022-07-30T06:15:09;21.20;99.90
7296;DHT22;40758;54.038;11.684;2022-07-30T06:17:43;20.70;99.90
7296;DHT22;40758;54.038;11.684;2022-07-30T06:20:25;20.30;99.90
7296;DHT22;40758;54.038;11.684;2022-07-30T06:22:54;19.80;99.90
7296;DHT22;40758;54.038;11.684;2022-07-30T06:25:24;19.50;99.90
7296;DHT22;40758;54.038;11.684;2022-07-30T06:27:53;19.40;99.90
7296;DHT22;40758;54.038;11.684;2022-07-30T06:30:22;19.30;99.90
7296;DHT22;40758;54.038;11.684;2022-07-30T06:32:58;19.20;99.90
7296;DHT22;40758;54.038;11.684;2022-07-30T06:35:27;19.20;99.90
7296;DHT22;40758;54.038;11.684;2022-07-30T06:37:56;19.10;99.90
7296;DHT22;40758;54.038;11.684;2022-07-30T06:40:33;19.20;99.90
7296;DHT22;40758;54.038;11.684;2022-07-30T06:43:03;19.20;99.90
7296;DHT22;40758;54.038;11.684;2022-07-30T06:45:32;19.30;99.90
7296;DHT22;40758;54.038;11.684;2022-07-30T06:48:03;19.40;99.90
7296;DHT22;40758;54.038;11.684;2022-07-30T06:50:35;19.50;99.90
7296;DHT22;40758;54.038;11.684;2022-07-30T06:53:04;19.70;99.90
7296;DHT22;40758;54.038;11.684;2022-07-30T06:55:33;19.80;99.90
7296;DHT22;40758;54.038;11.684;2022-07-30T06:58:02;20.00;99.90
7296;DHT22;40758;54.038;11.684;2022-07-30T07:00:31;20.00;99.90
7296;DHT22;40758;54.038;11.684;2022-07-30T07:03:02;20.10;99.90
7296;DHT22;40758;54.038;11.684;2022-07-30T07:05:38;20.20;99.90
7296;DHT22;40758;54.038;11.684;2022-07-30T07:08:10;20.20;99.90
7296;DHT22;40758;54.038;11.684;2022-07-30T07:10:39;20.20;99.90
7296;DHT22;40758;54.038;11.684;2022-07-30T07:13:09;20.20;99.90
7296;DHT22;40758;54.038;11.684;2022-07-30T07:15:38;20.30;99.90
7296;DHT22;40758;54.038;11.684;2022-07-30T07:18:08;20.30;99.90
7296;DHT22;40758;54.038;11.684;2022-07-30T07:20:39;20.50;99.90
7296;DHT22;40758;54.038;11.684;2022-07-30T07:23:12;20.60;99.90
7296;DHT22;40758;54.038;11.684;2022-07-30T07:25:48;20.70;99.90
7296;DHT22;40758;54.038;11.684;2022-07-30T07:28:18;20.90;99.90
7296;DHT22;40758;54.038;11.684;2022-07-30T07:30:46;20.90;99.90
7296;DHT22;40758;54.038;11.684;2022-07-30T07:33:17;21.00;99.90
7296;DHT22;40758;54.038;11.684;2022-07-30T07:35:46;21.10;99.90
7296;DHT22;40758;54.038;11.684;2022-07-30T07:38:16;21.20;99.90
7296;DHT22;40758;54.038;11.684;2022-07-30T07:40:45;21.30;99.90
7296;DHT22;40758;54.038;11.684;2022-07-30T07:43:15;21.50;99.90
7296;DHT22;40758;54.038;11.684;2022-07-30T07:45:44;21.90;99.90
7296;DHT22;40758;54.038;11.684;2022-07-30T07:48:13;22.10;99.90
7296;DHT22;40758;54.038;11.684;2022-07-30T07:50:44;22.30;99.90
7296;DHT22;40758;54.038;11.684;2022-07-30T07:53:13;22.70;99.90
7296;DHT22;40758;54.038;11.684;2022-07-30T07:55:42;23.10;99.90
7296;DHT22;40758;54.038;11.684;2022-07-30T07:58:11;23.60;99.90
7296;DHT22;40758;54.038;11.684;2022-07-30T08:00:51;24.50;99.90
7296;DHT22;40758;54.038;11.684;2022-07-30T08:03:20;25.90;99.90
7296;DHT22;40758;54.038;11.684;2022-07-30T08:05:51;27.40;99.90
7296;DHT22;40758;54.038;11.684;2022-07-30T08:08:32;28.60;99.90
7296;DHT22;40758;54.038;11.684;2022-07-30T08:11:03;30.20;99.90
7296;DHT22;40758;54.038;11.684;2022-07-30T08:13:35;31.40;93.20
7296;DHT22;40758;54.038;11.684;2022-07-30T08:16:19;31.50;90.20
7296;DHT22;40758;54.038;11.684;2022-07-30T08:18:48;31.50;86.00
7296;DHT22;40758;54.038;11.684;2022-07-30T08:21:19;30.70;86.40
7296;DHT22;40758;54.038;11.684;2022-07-30T08:23:48;30.80;90.10
7296;DHT22;40758;54.038;11.684;2022-07-30T08:26:17;31.40;85.80
7296;DHT22;40758;54.038;11.684;2022-07-30T08:28:46;32.10;77.90
7296;DHT22;40758;54.038;11.684;2022-07-30T08:31:18;32.30;76.30
7296;DHT22;40758;54.038;11.684;2022-07-30T08:33:48;33.10;69.40
7296;DHT22;40758;54.038;11.684;2022-07-30T08:36:18;33.30;67.10
7296;DHT22;40758;54.038;11.684;2022-07-30T08:38:52;33.40;65.60
7296;DHT22;40758;54.038;11.684;2022-07-30T08:41:21;34.20;61.90
7296;DHT22;40758;54.038;11.684;2022-07-30T08:43:52;33.90;61.00
7296;DHT22;40758;54.038;11.684;2022-07-30T08:46:29;33.80;61.60
7296;DHT22;40758;54.038;11.684;2022-07-30T08:49:03;34.40;58.90
7296;DHT22;40758;54.038;11.684;2022-07-30T08:51:38;34.30;55.60
7296;DHT22;40758;54.038;11.684;2022-07-30T08:54:07;34.20;55.30
7296;DHT22;40758;54.038;11.684;2022-07-30T08:56:38;33.90;56.00
7296;DHT22;40758;54.038;11.684;2022-07-30T08:59:07;34.20;56.30
7296;DHT22;40758;54.038;11.684;2022-07-30T09:01:36;34.10;53.70
7296;DHT22;40758;54.038;11.684;2022-07-30T09:04:06;33.50;54.40
7296;DHT22;40758;54.038;11.684;2022-07-30T09:06:35;33.40;55.70
7296;DHT22;40758;54.038;11.684;2022-07-30T09:09:06;33.40;54.20
7296;DHT22;40758;54.038;11.684;2022-07-30T09:11:41;33.80;55.40
7296;DHT22;40758;54.038;11.684;2022-07-30T09:14:11;34.50;52.10
7296;DHT22;40758;54.038;11.684;2022-07-30T09:16:43;34.00;55.00
7296;DHT22;40758;54.038;11.684;2022-07-30T09:19:14;33.50;52.90
7296;DHT22;40758;54.038;11.684;2022-07-30T09:21:54;33.40;51.10
7296;DHT22;40758;54.038;11.684;2022-07-30T09:24:26;33.60;51.30
7296;DHT22;40758;54.038;11.684;2022-07-30T09:26:58;33.80;48.50
7296;DHT22;40758;54.038;11.684;2022-07-30T09:29:31;33.90;50.50
7296;DHT22;40758;54.038;11.684;2022-07-30T09:32:03;33.70;49.60
7296;DHT22;40758;54.038;11.684;2022-07-30T09:34:36;33.50;47.20
7296;DHT22;40758;54.038;11.684;2022-07-30T09:37:17;33.10;49.10
7296;DHT22;40758;54.038;11.684;2022-07-30T09:39:53;33.20;49.90
7296;DHT22;40758;54.038;11.684;2022-07-30T09:42:27;33.30;49.30
7296;DHT22;40758;54.038;11.684;2022-07-30T09:45:05;33.40;48.80
7296;DHT22;40758;54.038;11.684;2022-07-30T09:47:41;33.40;48.00
7296;DHT22;40758;54.038;11.684;2022-07-30T09:50:17;33.20;46.80
7296;DHT22;40758;54.038;11.684;2022-07-30T09:53:06;32.80;47.20
7296;DHT22;40758;54.038;11.684;2022-07-30T09:55:42;33.10;47.50
7296;DHT22;40758;54.038;11.684;2022-07-30T09:58:12;33.70;47.00
7296;DHT22;40758;54.038;11.684;2022-07-30T10:00:56;33.50;46.50
7296;DHT22;40758;54.038;11.684;2022-07-30T10:03:26;33.40;47.70
7296;DHT22;40758;54.038;11.684;2022-07-30T10:06:05;33.10;44.30
7296;DHT22;40758;54.038;11.684;2022-07-30T10:08:40;32.90;46.80
7296;DHT22;40758;54.038;11.684;2022-07-30T10:11:17;33.20;46.30
7296;DHT22;40758;54.038;11.684;2022-07-30T10:13:52;34.40;44.60
7296;DHT22;40758;54.038;11.684;2022-07-30T10:16:28;34.50;44.60
7296;DHT22;40758;54.038;11.684;2022-07-30T10:18:57;33.70;40.80
7296;DHT22;40758;54.038;11.684;2022-07-30T10:21:27;33.60;43.30
7296;DHT22;40758;54.038;11.684;2022-07-30T10:24:02;34.30;44.50
7296;DHT22;40758;54.038;11.684;2022-07-30T10:26:38;34.60;42.60
7296;DHT22;40758;54.038;11.684;2022-07-30T10:29:08;34.60;41.60
7296;DHT22;40758;54.038;11.684;2022-07-30T10:31:44;33.30;41.40
7296;DHT22;40758;54.038;11.684;2022-07-30T10:34:20;31.30;44.80
7296;DHT22;40758;54.038;11.684;2022-07-30T10:36:56;30.70;45.90
7296;DHT22;40758;54.038;11.684;2022-07-30T10:39:36;31.60;44.10
7296;DHT22;40758;54.038;11.684;2022-07-30T10:42:33;32.60;45.00
7296;DHT22;40758;54.038;11.684;2022-07-30T10:45:27;32.90;42.10
7296;DHT22;40758;54.038;11.684;2022-07-30T10:48:13;33.50;41.90
7296;DHT22;40758;54.038;11.684;2022-07-30T10:50:52;33.70;41.60
7296;DHT22;40758;54.038;11.684;2022-07-30T10:53:33;34.00;42.40
7296;DHT22;40758;54.038;11.684;2022-07-30T10:56:12;34.10;40.30
7296;DHT22;40758;54.038;11.684;2022-07-30T10:59:00;34.60;41.70
7296;DHT22;40758;54.038;11.684;2022-07-30T11:02:08;35.50;40.60
7296;DHT22;40758;54.038;11.684;2022-07-30T11:04:38;34.80;37.00
7296;DHT22;40758;54.038;11.684;2022-07-30T11:07:27;33.80;41.20
7296;DHT22;40758;54.038;11.684;2022-07-30T11:09:58;33.90;41.00
7296;DHT22;40758;54.038;11.684;2022-07-30T11:12:51;33.90;38.50
7296;DHT22;40758;54.038;11.684;2022-07-30T11:15:52;33.70;40.60
7296;DHT22;40758;54.038;11.684;2022-07-30T11:18:24;32.90;39.00
7296;DHT22;40758;54.038;11.684;2022-07-30T11:21:16;32.80;40.60
7296;DHT22;40758;54.038;11.684;2022-07-30T11:23:48;33.70;38.20
7296;DHT22;40758;54.038;11.684;2022-07-30T11:26:48;34.00;38.20
7296;DHT22;40758;54.038;11.684;2022-07-30T11:29:35;33.80;38.10
7296;DHT22;40758;54.038;11.684;2022-07-30T11:32:26;32.30;40.90
7296;DHT22;40758;54.038;11.684;2022-07-30T11:35:16;31.20;40.70
7296;DHT22;40758;54.038;11.684;2022-07-30T11:38:11;30.60;41.70
7296;DHT22;40758;54.038;11.684;2022-07-30T11:41:08;30.80;42.80
7296;DHT22;40758;54.038;11.684;2022-07-30T11:43:38;31.30;43.60
7296;DHT22;40758;54.038;11.684;2022-07-30T11:46:11;31.20;44.10
7296;DHT22;40758;54.038;11.684;2022-07-30T11:48:58;31.60;41.70
7296;DHT22;40758;54.038;11.684;2022-07-30T11:51:39;31.00;42.30
7296;DHT22;40758;54.038;11.684;2022-07-30T11:54:09;30.30;43.60
7296;DHT22;40758;54.038;11.684;2022-07-30T11:56:50;30.30;43.70
7296;DHT22;40758;54.038;11.684;2022-07-30T11:59:21;30.20;43.50
7296;DHT22;40758;54.038;11.684;2022-07-30T12:01:50;29.60;44.70
7296;DHT22;40758;54.038;11.684;2022-07-30T12:04:25;29.20;45.50
7296;DHT22;40758;54.038;11.684;2022-07-30T12:06:54;29.00;46.10
7296;DHT22;40758;54.038;11.684;2022-07-30T12:09:25;28.80;46.60
7296;DHT22;40758;54.038;11.684;2022-07-30T12:11:55;29.20;47.80
7296;DHT22;40758;54.038;11.684;2022-07-30T12:14:36;29.90;47.30
7296;DHT22;40758;54.038;11.684;2022-07-30T12:17:05;30.10;44.00
7296;DHT22;40758;54.038;11.684;2022-07-30T12:19:47;30.10;45.10
7296;DHT22;40758;54.038;11.684;2022-07-30T12:22:17;30.80;42.90
7296;DHT22;40758;54.038;11.684;2022-07-30T12:24:47;31.50;41.90
7296;DHT22;40758;54.038;11.684;2022-07-30T12:27:16;31.80;41.40
7296;DHT22;40758;54.038;11.684;2022-07-30T12:29:45;31.50;44.10
7296;DHT22;40758;54.038;11.684;2022-07-30T12:32:24;31.10;43.00
7296;DHT22;40758;54.038;11.684;2022-07-30T12:34:59;31.10;42.60
7296;DHT22;40758;54.038;11.684;2022-07-30T12:37:28;30.90;40.70
7296;DHT22;40758;54.038;11.684;2022-07-30T12:40:10;30.00;43.40
7296;DHT22;40758;54.038;11.684;2022-07-30T12:42:48;29.30;45.90
7296;DHT22;40758;54.038;11.684;2022-07-30T12:45:26;29.00;47.00
7296;DHT22;40758;54.038;11.684;2022-07-30T12:48:17;29.40;47.20
7296;DHT22;40758;54.038;11.684;2022-07-30T12:51:03;30.20;45.90
7296;DHT22;40758;54.038;11.684;2022-07-30T12:53:33;31.20;43.10
7296;DHT22;40758;54.038;11.684;2022-07-30T12:56:10;32.10;42.70
7296;DHT22;40758;54.038;11.684;2022-07-30T12:58:40;32.70;42.20
7296;DHT22;40758;54.038;11.684;2022-07-30T13:01:12;33.30;41.40
7296;DHT22;40758;54.038;11.684;2022-07-30T13:03:42;33.60;39.60
7296;DHT22;40758;54.038;11.684;2022-07-30T13:06:19;33.30;39.10
7296;DHT22;40758;54.038;11.684;2022-07-30T13:08:54;32.90;37.20
7296;DHT22;40758;54.038;11.684;2022-07-30T13:11:26;32.80;38.10
7296;DHT22;40758;54.038;11.684;2022-07-30T13:14:07;32.70;38.20
7296;DHT22;40758;54.038;11.684;2022-07-30T13:16:39;32.70;38.90
7296;DHT22;40758;54.038;11.684;2022-07-30T13:19:10;32.50;37.30
7296;DHT22;40758;54.038;11.684;2022-07-30T13:21:42;32.90;37.30
7296;DHT22;40758;54.038;11.684;2022-07-30T13:24:17;33.40;39.20
7296;DHT22;40758;54.038;11.684;2022-07-30T13:26:46;33.70;39.40
7296;DHT22;40758;54.038;11.684;2022-07-30T13:29:27;33.50;39.00
7296;DHT22;40758;54.038;11.684;2022-07-30T13:31:57;33.30;41.00
7296;DHT22;40758;54.038;11.684;2022-07-30T13:34:27;33.50;38.60
7296;DHT22;40758;54.038;11.684;2022-07-30T13:36:59;33.30;37.00
7296;DHT22;40758;54.038;11.684;2022-07-30T13:39:29;33.20;35.50
7296;DHT22;40758;54.038;11.684;2022-07-30T13:41:59;33.10;35.30
7296;DHT22;40758;54.038;11.684;2022-07-30T13:44:28;33.10;34.70
7296;DHT22;40758;54.038;11.684;2022-07-30T13:46:57;33.40;35.00
7296;DHT22;40758;54.038;11.684;2022-07-30T13:49:28;33.60;33.80
7296;DHT22;40758;54.038;11.684;2022-07-30T13:51:59;34.20;34.30
7296;DHT22;40758;54.038;11.684;2022-07-30T13:54:28;34.10;32.40
7296;DHT22;40758;54.038;11.684;2022-07-30T13:56:58;34.40;33.10
7296;DHT22;40758;54.038;11.684;2022-07-30T13:59:28;34.40;32.80
7296;DHT22;40758;54.038;11.684;2022-07-30T14:01:57;34.40;33.60
7296;DHT22;40758;54.038;11.684;2022-07-30T14:04:29;34.40;33.10
7296;DHT22;40758;54.038;11.684;2022-07-30T14:07:03;35.00;32.50
7296;DHT22;40758;54.038;11.684;2022-07-30T14:09:35;34.50;32.00
7296;DHT22;40758;54.038;11.684;2022-07-30T14:12:13;35.20;32.10
7296;DHT22;40758;54.038;11.684;2022-07-30T14:14:48;35.30;30.20
7296;DHT22;40758;54.038;11.684;2022-07-30T14:17:21;35.60;30.00
7296;DHT22;40758;54.038;11.684;2022-07-30T14:19:50;35.80;29.60
7296;DHT22;40758;54.038;11.684;2022-07-30T14:22:23;35.90;31.50
7296;DHT22;40758;54.038;11.684;2022-07-30T14:24:54;36.30;29.20
7296;DHT22;40758;54.038;11.684;2022-07-30T14:27:23;36.50;30.00
7296;DHT22;40758;54.038;11.684;2022-07-30T14:29:52;36.40;29.10
7296;DHT22;40758;54.038;11.684;2022-07-30T14:32:21;36.00;29.40
7296;DHT22;40758;54.038;11.684;2022-07-30T14:34:53;35.60;33.60
7296;DHT22;40758;54.038;11.684;2022-07-30T14:37:26;35.30;29.40
7296;DHT22;40758;54.038;11.684;2022-07-30T14:39:55;35.40;31.60
7296;DHT22;40758;54.038;11.684;2022-07-30T14:42:24;35.00;28.50
7296;DHT22;40758;54.038;11.684;2022-07-30T14:44:54;34.60;28.70
7296;DHT22;40758;54.038;11.684;2022-07-30T14:47:23;34.60;32.50
7296;DHT22;40758;54.038;11.684;2022-07-30T14:49:53;34.60;32.90
7296;DHT22;40758;54.038;11.684;2022-07-30T14:52:22;34.30;34.20
7296;DHT22;40758;54.038;11.684;2022-07-30T14:54:52;34.40;34.70
7296;DHT22;40758;54.038;11.684;2022-07-30T14:57:21;34.10;35.30
7296;DHT22;40758;54.038;11.684;2022-07-30T14:59:50;33.80;36.10
7296;DHT22;40758;54.038;11.684;2022-07-30T15:02:19;34.10;35.90
7296;DHT22;40758;54.038;11.684;2022-07-30T15:04:49;34.30;31.60
7296;DHT22;40758;54.038;11.684;2022-07-30T15:07:18;33.90;34.40
7296;DHT22;40758;54.038;11.684;2022-07-30T15:09:47;33.60;36.30
7296;DHT22;40758;54.038;11.684;2022-07-30T15:12:19;33.40;33.60
7296;DHT22;40758;54.038;11.684;2022-07-30T15:14:53;33.50;34.10
7296;DHT22;40758;54.038;11.684;2022-07-30T15:17:23;33.90;33.00
7296;DHT22;40758;54.038;11.684;2022-07-30T15:19:52;34.20;35.00
7296;DHT22;40758;54.038;11.684;2022-07-30T15:22:21;34.60;35.50
7296;DHT22;40758;54.038;11.684;2022-07-30T15:24:50;35.00;32.60
7296;DHT22;40758;54.038;11.684;2022-07-30T15:27:21;34.70;33.10
7296;DHT22;40758;54.038;11.684;2022-07-30T15:29:59;34.00;33.90
7296;DHT22;40758;54.038;11.684;2022-07-30T15:32:31;33.10;34.70
7296;DHT22;40758;54.038;11.684;2022-07-30T15:35:01;33.40;36.30
7296;DHT22;40758;54.038;11.684;2022-07-30T15:37:30;33.20;37.70
7296;DHT22;40758;54.038;11.684;2022-07-30T15:39:59;33.60;37.90
7296;DHT22;40758;54.038;11.684;2022-07-30T15:42:30;34.00;37.90
7296;DHT22;40758;54.038;11.684;2022-07-30T15:45:01;34.40;36.60
7296;DHT22;40758;54.038;11.684;2022-07-30T15:47:44;34.20;36.90
7296;DHT22;40758;54.038;11.684;2022-07-30T15:50:18;34.10;37.90
7296;DHT22;40758;54.038;11.684;2022-07-30T15:52:47;33.80;38.30
7296;DHT22;40758;54.038;11.684;2022-07-30T15:55:16;34.00;39.20
7296;DHT22;40758;54.038;11.684;2022-07-30T15:57:47;34.10;37.60
7296;DHT22;40758;54.038;11.684;2022-07-30T16:00:17;34.00;36.90
7296;DHT22;40758;54.038;11.684;2022-07-30T16:02:45;33.90;37.80
7296;DHT22;40758;54.038;11.684;2022-07-30T16:05:14;33.50;35.70
7296;DHT22;40758;54.038;11.684;2022-07-30T16:07:44;33.40;37.30